Latest Weather Observations for Maryborough

IDQ60801

Issued at 11:22 pm EST Tuesday 28 January 2020 (issued every 10 minutes, with the page automatically refreshed every 10 minutes)

About weather observations | Map of weather stations | Latest weather observations for QLD | Other Formats
Station Details ID: 040126 Name: MARYBOROUGH Lat: -25.51 Lon: 152.72 Height: 8.98 m
Data from the previous 72 hours. | See also: Recent months at Maryborough
Date/Time
EST
Temp
°C
App
Temp
°C
Dew
Point
°C
Rel
Hum
%
Delta-T
°C
Wind Press
QNH
hPa
Press
MSL
hPa
Rain since
9am
mm
Dir  Spd
km/h
Gust
km/h
Spd
kts
Gust
kts
28/11:00pm 23.3 28.6 23.0 98 0.2 CALM 0 0 0 0 1014.5 1014.4 9.8
28/10:44pm 23.3 28.5 22.8 97 0.3 CALM 0 0 0 0 1014.7 1014.6 9.8
28/10:34pm 23.2 28.3 22.7 97 0.3 CALM 0 0 0 0 1014.8 1014.7 9.8
28/10:30pm 23.2 28.3 22.7 97 0.3 CALM 0 0 0 0 1014.8 1014.7 9.8
28/10:12pm 23.2 28.2 22.5 96 0.5 CALM 0 0 0 0 1014.9 1014.8 9.8
28/10:00pm 23.2 28.2 22.5 96 0.5 CALM 0 0 0 0 1014.9 1014.8 9.8
28/09:30pm 23.4 28.5 22.6 95 0.5 CALM 0 0 0 0 1014.8 1014.7 9.8
28/09:03pm 23.6 28.7 22.6 94 0.7 CALM 0 0 0 0 1014.6 1014.5 9.8
28/09:00pm 23.6 28.7 22.6 94 0.7 CALM 0 0 0 0 1014.6 1014.5 9.8
28/08:40pm 23.8 29.0 22.8 94 0.7 CALM 0 0 0 0 1014.4 1014.3 9.8
28/08:30pm 23.9 29.1 22.9 94 0.7 CALM 0 0 0 0 1014.3 1014.2 9.8
28/08:00pm 24.4 29.9 23.4 94 0.7 CALM 0 0 0 0 1014.0 1013.9 9.8
28/07:30pm 24.7 30.0 23.1 91 1.1 CALM 0 0 0 0 1013.7 1013.6 9.8
28/07:00pm 25.2 29.7 23.6 91 1.1 N 6 7 3 4 1013.4 1013.3 9.8
28/06:30pm 25.6 30.3 24.0 91 1.1 N 6 9 3 5 1013.1 1013.0 9.8
28/06:00pm 25.6 30.8 23.5 88 1.4 N 2 6 1 3 1012.5 1012.4 9.8
28/05:36pm 25.5 28.5 22.6 84 2.0 N 11 13 6 7 1012.1 1012.0 9.8
28/05:30pm 25.5 28.8 22.6 84 2.0 N 9 13 5 7 1012.0 1011.9 9.6
28/05:09pm 26.5 28.2 21.7 75 3.2 NNE 15 30 8 16 1012.0 1011.9 5.8
28/05:00pm 29.1 32.4 22.6 68 4.4 N 9 15 5 8 1011.5 1011.4 3.0
28/04:30pm 29.1 32.3 22.3 66 4.6 NNE 9 17 5 9 1011.4 1011.3 3.0
28/04:00pm 29.6 32.4 22.3 65 5.0 NE 11 17 6 9 1011.3 1011.2 3.0
28/03:30pm 29.6 33.6 23.1 68 4.5 NE 7 11 4 6 1011.4 1011.3 3.0
28/03:00pm 28.4 33.2 24.2 78 2.9 NE 6 7 3 4 1011.7 1011.6 3.0
28/02:30pm 27.2 30.5 23.2 79 2.7 ENE 11 22 6 12 1012.1 1012.0 3.0
28/02:24pm 27.9 32.1 24.1 80 2.6 NE 9 15 5 8 1012.2 1012.1 3.0
28/02:03pm 26.8 28.2 21.8 74 3.3 E 17 26 9 14 1012.4 1012.3 2.4
28/02:00pm 27.0 27.8 21.3 71 3.8 ESE 19 26 10 14 1012.5 1012.4 1.8
28/01:30pm 29.3 31.6 21.3 62 5.3 N 11 19 6 10 1012.6 1012.5 1.8
28/01:00pm 28.8 30.6 21.8 66 4.7 NNW 15 20 8 11 1012.8 1012.7 1.8
28/12:30pm 28.4 31.3 22.4 70 4.1 NNW 11 15 6 8 1013.1 1013.0 1.8
28/12:00pm 27.8 31.1 22.5 73 3.6 N 9 13 5 7 1013.3 1013.2 1.8
28/11:30am 27.4 31.0 23.0 77 3.0 NNW 9 22 5 12 1013.5 1013.4 1.8
28/11:00am 27.5 32.0 23.9 81 2.5 W 7 11 4 6 1013.4 1013.3 1.8
28/10:48am 27.2 30.7 22.8 77 3.0 SW 9 13 5 7 1013.4 1013.3 1.8
28/10:30am 26.2 28.6 21.6 76 3.1 ESE 11 20 6 11 1013.6 1013.5 1.4
28/10:28am 26.4 28.2 21.2 73 3.4 ESE 13 20 7 11 1013.6 1013.5 1.0
28/10:00am 28.6 30.3 20.9 63 5.1 ESE 13 20 7 11 1013.4 1013.3 0.0
28/09:30am 28.8 30.6 21.1 63 5.1 E 13 19 7 10 1013.2 1013.1 0.0
28/09:00am 27.5 30.1 22.0 72 3.7 NNE 11 19 6 10 1012.9 1012.8 0.2
28/08:30am 25.5 28.4 22.4 83 2.1 ESE 11 17 6 9 1013.3 1013.2 0.2
28/08:26am 25.0 27.9 22.5 86 1.7 ESE 11 15 6 8 1013.4 1013.3 0.2
28/08:15am 24.5 26.8 22.8 90 1.1 E 15 20 8 11 1013.6 1013.5 0.2
28/08:06am 24.4 27.0 22.7 90 1.1 E 13 19 7 10 1013.9 1013.8 0.2
28/08:03am 24.3 26.9 22.7 91 1.1 ESE 13 19 7 10 1013.9 1013.8 0.2
28/08:00am 24.4 27.2 23.0 92 0.9 ESE 13 17 7 9 1013.9 1013.8 0.2
28/07:47am 24.2 27.0 22.3 89 1.3 E 11 17 6 9 1013.9 1013.8 0.2
28/07:36am 24.5 27.0 21.8 85 1.8 ENE 11 19 6 10 1013.9 1013.8 0.2
28/07:30am 24.7 27.3 22.0 85 1.8 E 11 17 6 9 1013.8 1013.7 0.2
28/07:00am 24.0 26.3 22.1 89 1.3 ESE 13 19 7 10 1013.5 1013.4 0.2
28/06:37am 23.8 26.3 22.4 92 0.9 SE 13 17 7 9 1013.1 1013.0 0.2
28/06:30am 23.6 26.3 22.2 92 0.9 SE 11 17 6 9 1013.0 1012.9 0.2
28/06:00am 23.3 26.3 21.9 92 0.9 ESE 9 11 5 6 1012.9 1012.8 0.2
28/05:30am 23.3 26.1 21.6 90 1.1 ESE 9 11 5 6 1012.5 1012.4 0.2
28/05:18am 23.4 26.3 21.7 90 1.1 ESE 9 13 5 7 1012.4 1012.3 0.2
28/05:00am 23.4 25.6 21.8 91 1.1 SE 13 17 7 9 1012.2 1012.1 0.2
28/04:30am 23.3 26.1 22.3 94 0.7 SE 11 13 6 7 1012.1 1012.0 0.2
28/04:00am 23.4 26.1 22.2 93 0.8 SSE 11 13 6 7 1012.1 1012.0 0.2
28/03:30am 23.5 26.7 22.3 93 0.8 SSE 9 11 5 6 1012.0 1011.9 0.2
28/03:00am 23.4 26.4 22.0 92 0.9 S 9 11 5 6 1012.0 1011.9 0.2
28/02:30am 23.4 26.3 21.8 91 1.1 SE 9 11 5 6 1012.0 1011.9 0.2
28/02:00am 23.9 27.3 22.0 89 1.3 ESE 7 9 4 5 1012.2 1012.1 0.2
28/01:30am 23.7 26.7 22.0 90 1.1 SE 9 11 5 6 1012.7 1012.6 0.2
28/01:00am 24.0 27.0 21.9 88 1.4 SE 9 13 5 7 1012.8 1012.7 0.2
28/12:30am 24.2 26.9 22.1 88 1.4 ESE 11 13 6 7 1013.0 1012.9 0.2
28/12:00am 23.5 26.8 21.9 91 1.1 SE 7 9 4 5 1013.4 1013.3 0.2
 
Date/Time
EST
Temp
°C
App
Temp
°C
Dew
Point
°C
Rel
Hum
%
Delta-T
°C
Wind Press
QNH
hPa
Press
MSL
hPa
Rain since
9am
mm
Dir  Spd
km/h
Gust
km/h
Spd
kts
Gust
kts
27/11:30pm 23.4 26.5 21.5 89 1.3 SE 7 9 4 5 1013.5 1013.4 0.2
27/11:00pm 23.5 26.6 21.4 88 1.4 ESE 7 9 4 5 1013.6 1013.5 0.2
27/10:30pm 23.4 27.5 20.7 85 1.8 CALM 0 0 0 0 1013.8 1013.7 0.2
27/10:00pm 23.5 27.6 20.8 85 1.8 CALM 0 0 0 0 1013.8 1013.7 0.2
27/09:30pm 23.7 26.0 20.6 83 2.0 SE 9 13 5 7 1013.7 1013.6 0.2
27/09:00pm 24.0 26.5 20.3 80 2.4 ESE 7 13 4 7 1013.8 1013.7 0.2
27/08:30pm 23.7 25.0 20.8 84 1.9 E 15 24 8 13 1013.8 1013.7 0.2
27/08:00pm 25.3 27.1 20.3 74 3.3 SE 11 22 6 12 1013.6 1013.5 0.2
27/07:30pm 25.2 26.4 20.0 73 3.4 SE 13 17 7 9 1013.3 1013.2 0.2
27/07:00pm 25.7 27.2 19.8 70 3.8 ESE 11 17 6 9 1013.0 1012.9 0.2
27/06:30pm 26.2 27.3 19.6 67 4.3 ESE 13 17 7 9 1012.7 1012.6 0.2
27/06:00pm 26.6 26.3 19.2 64 4.8 ESE 19 26 10 14 1012.1 1012.0 0.2
27/05:30pm 27.3 27.1 19.4 62 5.1 ESE 19 30 10 16 1011.7 1011.6 0.2
27/05:00pm 28.0 27.6 19.0 58 5.8 ESE 19 28 10 15 1011.4 1011.3 0.2
27/04:30pm 28.8 28.6 18.6 54 6.6 E 17 24 9 13 1011.1 1011.0 0.2
27/04:00pm 28.7 29.5 19.1 56 6.2 ESE 13 24 7 13 1011.2 1011.1 0.2
27/03:30pm 28.7 28.1 18.5 54 6.5 ESE 19 30 10 16 1011.3 1011.2 0.2
27/03:00pm 29.0 28.8 17.5 49 7.3 E 15 24 8 13 1011.5 1011.4 0.2
27/02:30pm 29.5 28.8 18.3 51 7.2 ESE 19 28 10 15 1011.6 1011.5 0.2
27/02:00pm 30.5 29.5 18.9 50 7.5 ESE 22 35 12 19 1011.8 1011.7 0.2
27/01:30pm 30.0 29.6 18.1 49 7.6 ESE 17 28 9 15 1012.0 1011.9 0.2
27/01:00pm 29.6 30.4 19.0 53 6.9 E 13 20 7 11 1012.2 1012.1 0.2
27/12:30pm 29.2 30.3 18.9 53 6.7 E 11 22 6 12 1012.5 1012.4 0.2
27/12:00pm 28.0 29.5 20.6 64 4.9 ENE 13 22 7 12 1012.8 1012.7 0.2
27/11:30am 28.5 29.8 19.4 57 5.9 E 11 17 6 9 1013.0 1012.9 0.2
27/11:00am 28.3 29.9 20.8 63 5.0 ENE 13 22 7 12 1013.3 1013.2 0.2
27/10:30am 27.4 29.3 20.5 66 4.5 ENE 11 20 6 11 1013.6 1013.5 0.2
27/10:00am 26.1 27.2 18.8 64 4.7 E 11 17 6 9 1013.7 1013.6 0.2
27/09:30am 28.0 30.0 20.0 61 5.2 ESE 9 20 5 11 1013.7 1013.6 0.0
27/09:00am 27.7 29.9 20.3 64 4.9 E 9 13 5 7 1013.6 1013.5 1.0
27/08:30am 27.2 29.4 20.5 67 4.4 ESE 9 17 5 9 1013.6 1013.5 1.0
27/08:00am 26.8 29.1 21.3 72 3.7 SE 11 15 6 8 1013.6 1013.5 1.0
27/07:30am 26.5 29.5 21.9 76 3.1 SE 9 11 5 6 1013.4 1013.3 1.0
27/07:00am 24.7 27.4 21.4 82 2.2 S 9 11 5 6 1013.0 1012.9 1.0
27/06:30am 24.6 27.7 22.1 86 1.7 S 9 11 5 6 1012.7 1012.6 1.0
27/06:00am 23.4 26.8 22.0 92 0.9 S 7 9 4 5 1012.5 1012.4 1.0
27/05:30am 23.4 26.7 21.8 91 1.1 SSE 7 9 4 5 1012.2 1012.1 1.0
27/05:00am 23.2 27.5 21.1 88 1.4 CALM 0 0 0 0 1012.0 1011.9 1.0
27/04:30am 23.0 26.0 20.9 88 1.4 SE 6 7 3 4 1011.9 1011.8 1.0
27/04:00am 23.0 26.9 20.3 85 1.7 CALM 0 0 0 0 1011.8 1011.7 1.0
27/03:30am 23.2 25.9 20.7 86 1.6 SE 7 11 4 6 1011.9 1011.8 1.0
27/03:00am 23.5 26.2 20.2 82 2.1 ESE 6 9 3 5 1011.9 1011.8 1.0
27/02:30am 23.7 26.5 21.6 88 1.4 E 9 17 5 9 1012.2 1012.1 1.0
27/02:00am 23.2 26.7 22.2 94 0.7 ESE 7 9 4 5 1012.4 1012.3 1.0
27/01:30am 23.0 26.3 21.8 93 0.8 ESE 7 9 4 5 1012.8 1012.7 1.0
27/01:00am 23.0 26.3 21.5 91 1.0 ESE 6 7 3 4 1013.0 1012.9 1.0
27/12:30am 23.2 27.6 21.3 89 1.2 CALM 0 0 0 0 1013.2 1013.1 1.0
27/12:00am 23.5 27.6 20.8 85 1.8 CALM 0 0 0 0 1013.5 1013.4 1.0
 
Date/Time
EST
Temp
°C
App
Temp
°C
Dew
Point
°C
Rel
Hum
%
Delta-T
°C
Wind Press
QNH
hPa
Press
MSL
hPa
Rain since
9am
mm
Dir  Spd
km/h
Gust
km/h
Spd
kts
Gust
kts
26/11:30pm 24.2 27.5 21.5 85 1.8 E 6 7 3 4 1013.8 1013.7 1.0
26/11:00pm 24.0 28.7 21.9 88 1.4 CALM 0 0 0 0 1014.2 1014.1 1.0
26/10:30pm 23.4 27.0 21.3 88 1.4 ESE 4 7 2 4 1014.3 1014.2 1.0
26/10:00pm 23.3 26.3 20.8 86 1.6 ESE 6 6 3 3 1014.4 1014.3 1.0
26/09:30pm 23.6 27.4 20.9 85 1.8 ESE 2 7 1 4 1014.0 1013.9 1.0
26/09:00pm 23.8 26.8 20.9 84 1.9 ESE 6 7 3 4 1013.8 1013.7 1.0
26/08:30pm 23.9 26.7 20.8 83 2.0 ESE 7 9 4 5 1013.6 1013.5 1.0
26/08:00pm 24.8 27.0 20.5 77 2.8 ESE 9 11 5 6 1013.2 1013.1 1.0
26/07:30pm 25.3 27.7 20.1 73 3.4 ESE 7 11 4 6 1012.9 1012.8 1.0
26/07:00pm 25.9 28.0 20.2 71 3.7 ESE 9 15 5 8 1012.7 1012.6 1.0
26/06:30pm 26.4 28.3 20.5 70 3.9 ESE 11 15 6 8 1012.4 1012.3 1.0
26/06:00pm 26.9 27.9 20.3 67 4.3 E 15 28 8 15 1012.0 1011.9 1.0
26/05:30pm 27.7 28.2 20.8 66 4.6 ESE 19 28 10 15 1011.5 1011.4 1.0
26/05:00pm 27.6 28.4 20.7 66 4.6 ESE 17 32 9 17 1011.3 1011.2 1.0
26/04:30pm 27.9 28.3 21.0 66 4.6 ESE 20 32 11 17 1011.2 1011.1 1.0
26/04:00pm 28.6 30.0 21.1 64 5.0 E 15 20 8 11 1011.2 1011.1 1.0
26/03:30pm 29.2 31.6 20.9 61 5.5 ENE 9 17 5 9 1011.4 1011.3 1.0
26/03:00pm 28.0 31.1 21.5 67 4.3 N 7 11 4 6 1011.6 1011.5 1.0
26/02:30pm 28.3 31.0 21.3 65 4.7 NNE 9 17 5 9 1011.9 1011.8 1.0
26/02:00pm 28.8 31.0 21.1 63 5.1 SSE 11 28 6 15 1012.1 1012.0 1.0
26/01:30pm 28.5 30.4 20.5 62 5.3 N 11 17 6 9 1012.3 1012.2 1.0
26/01:00pm 30.1 31.6 20.6 56 6.3 ENE 13 22 7 12 1012.6 1012.5 1.0
26/12:30pm 28.7 30.9 21.2 64 5.0 E 11 20 6 11 1013.0 1012.9 1.0
26/12:00pm 27.9 30.0 21.7 69 4.2 E 13 24 7 13 1013.3 1013.2 1.0
26/11:30am 26.4 27.2 20.7 71 3.7 ENE 17 32 9 17 1013.6 1013.5 1.0
26/11:00am 26.7 29.1 22.3 77 3.0 ESE 13 22 7 12 1013.7 1013.6 1.0
26/10:30am 25.8 28.0 23.3 86 1.7 SE 17 22 9 12 1013.9 1013.8 0.6
26/10:00am 27.3 28.2 21.6 71 3.8 SE 19 24 10 13 1013.6 1013.5 0.4
26/09:52am 28.0 30.1 22.5 72 3.7 ESE 15 22 8 12 1013.6 1013.5 0.4
26/09:36am 26.8 28.7 21.3 72 3.7 NNE 13 26 7 14 1013.7 1013.6 0.2
26/09:30am 27.4 29.3 20.5 66 4.5 NE 11 19 6 10 1013.7 1013.6 0.0
26/09:00am 28.4 30.1 20.9 64 5.0 E 13 20 7 11 1013.6 1013.5 1.2
26/08:30am 27.8 31.4 23.0 75 3.3 E 9 15 5 8 1013.7 1013.6 1.2
26/08:00am 25.8 28.5 22.9 84 2.0 SE 13 19 7 10 1013.7 1013.6 1.2
26/07:30am 25.2 28.3 23.6 91 1.1 SE 13 17 7 9 1013.7 1013.6 1.2
26/07:00am 24.2 26.9 22.1 88 1.4 ESE 11 15 6 8 1013.6 1013.5 1.0
26/06:30am 24.0 27.6 23.0 94 0.7 SE 9 11 5 6 1013.2 1013.1 1.0
26/06:00am 23.2 27.2 22.7 97 0.3 SSE 6 7 3 4 1012.7 1012.6 1.0
26/05:30am 23.1 26.8 22.6 97 0.3 SE 7 9 4 5 1012.5 1012.4 1.0
26/05:00am 23.1 26.7 22.3 95 0.5 SE 7 9 4 5 1012.3 1012.2 1.0
26/04:30am 23.5 27.0 22.8 96 0.5 SE 9 13 5 7 1012.1 1012.0 1.0
26/04:29am 23.5 27.0 22.8 96 0.5 SE 9 13 5 7 1012.1 1012.0 1.0
26/04:10am 23.6 27.5 22.9 96 0.5 SE 7 11 4 6 1011.9 1011.8 0.6
26/04:00am 23.4 27.1 22.6 95 0.5 SE 7 9 4 5 1011.8 1011.7 0.0
26/03:30am 23.2 26.5 22.5 96 0.5 SE 9 9 5 5 1011.8 1011.7 0.0
26/03:00am 22.6 25.6 21.9 96 0.5 SE 9 13 5 7 1011.8 1011.7 0.0
26/02:30am 22.3 25.1 20.9 92 0.9 SE 7 7 4 4 1011.9 1011.8 0.0
26/02:00am 22.4 25.0 21.2 93 0.8 SE 9 11 5 6 1012.1 1012.0 0.0
26/01:30am 22.5 25.5 20.8 90 1.1 SE 6 7 3 4 1012.3 1012.2 0.0
26/01:00am 22.4 25.0 20.5 89 1.2 SSE 7 9 4 5 1012.5 1012.4 0.0
26/12:30am 22.8 25.5 20.7 88 1.4 SE 7 9 4 5 1012.9 1012.8 0.0
26/12:00am 23.8 27.0 21.7 88 1.4 ESE 7 9 4 5 1013.4 1013.3 0.0
 
Date/Time
EST
Temp
°C
App
Temp
°C
Dew
Point
°C
Rel
Hum
%
Delta-T
°C
Wind Press
QNH
hPa
Press
MSL
hPa
Rain since
9am
mm
Dir  Spd
km/h
Gust
km/h
Spd
kts
Gust
kts
25/11:30pm 23.4 25.9 21.1 87 1.5 SE 9 11 5 6 1013.6 1013.5 0.0

Other formats

Comma delimited format used in spreadsheet applications
http://www.bom.gov.au/fwo/IDQ60801/IDQ60801.94567.axf

JavaScript Object Notation format (JSON) in row-major order
http://www.bom.gov.au/fwo/IDQ60801/IDQ60801.94567.json

Data quality

Most of these data are generated automatically and are frequently updated. Quality checks on data are not normally performed. It is possible for incorrect values to appear. Refer to information at About Latest Weather Observations and please check the disclaimer before using these data.